sensor_id;sensor_type;location;lat;lon;timestamp;P1;durP1;ratioP1;P2;durP2;ratioP2
63005;SDS011;53704;52.532;6.426;2022-11-20T00:01:23;19.43;;;12.40;;
63005;SDS011;53704;52.532;6.426;2022-11-20T00:03:50;17.23;;;12.77;;
63005;SDS011;53704;52.532;6.426;2022-11-20T00:06:17;28.33;;;14.13;;
63005;SDS011;53704;52.532;6.426;2022-11-20T00:08:44;19.60;;;13.53;;
63005;SDS011;53704;52.532;6.426;2022-11-20T00:11:14;17.83;;;12.63;;
63005;SDS011;53704;52.532;6.426;2022-11-20T00:13:46;17.87;;;13.00;;
63005;SDS011;53704;52.532;6.426;2022-11-20T00:16:15;22.90;;;12.40;;
63005;SDS011;53704;52.532;6.426;2022-11-20T00:18:42;17.43;;;12.73;;
63005;SDS011;53704;52.532;6.426;2022-11-20T00:21:15;17.53;;;12.87;;
63005;SDS011;53704;52.532;6.426;2022-11-20T00:23:46;17.10;;;11.20;;
63005;SDS011;53704;52.532;6.426;2022-11-20T00:26:13;21.30;;;12.57;;
63005;SDS011;53704;52.532;6.426;2022-11-20T00:28:40;15.57;;;11.33;;
63005;SDS011;53704;52.532;6.426;2022-11-20T00:31:07;17.50;;;11.23;;
63005;SDS011;53704;52.532;6.426;2022-11-20T00:33:35;18.43;;;11.70;;
63005;SDS011;53704;52.532;6.426;2022-11-20T00:36:02;23.77;;;12.03;;
63005;SDS011;53704;52.532;6.426;2022-11-20T00:38:29;22.93;;;12.73;;
63005;SDS011;53704;52.532;6.426;2022-11-20T00:40:56;19.43;;;12.87;;
63005;SDS011;53704;52.532;6.426;2022-11-20T00:43:22;19.07;;;12.00;;
63005;SDS011;53704;52.532;6.426;2022-11-20T00:45:47;17.37;;;12.57;;
63005;SDS011;53704;52.532;6.426;2022-11-20T00:48:13;19.47;;;12.97;;
63005;SDS011;53704;52.532;6.426;2022-11-20T00:50:38;17.63;;;12.27;;
63005;SDS011;53704;52.532;6.426;2022-11-20T00:53:04;15.13;;;12.00;;
63005;SDS011;53704;52.532;6.426;2022-11-20T00:55:29;16.27;;;12.23;;
63005;SDS011;53704;52.532;6.426;2022-11-20T00:57:54;15.70;;;12.23;;
63005;SDS011;53704;52.532;6.426;2022-11-20T01:00:20;20.63;;;12.10;;
63005;SDS011;53704;52.532;6.426;2022-11-20T01:02:45;19.43;;;11.20;;
63005;SDS011;53704;52.532;6.426;2022-11-20T01:05:10;20.57;;;11.67;;
63005;SDS011;53704;52.532;6.426;2022-11-20T01:07:36;14.83;;;12.23;;
63005;SDS011;53704;52.532;6.426;2022-11-20T01:10:01;20.30;;;11.93;;
63005;SDS011;53704;52.532;6.426;2022-11-20T01:12:27;23.17;;;12.67;;
63005;SDS011;53704;52.532;6.426;2022-11-20T01:14:52;17.37;;;12.17;;
63005;SDS011;53704;52.532;6.426;2022-11-20T01:17:18;16.60;;;12.77;;
63005;SDS011;53704;52.532;6.426;2022-11-20T01:19:43;19.17;;;12.87;;
63005;SDS011;53704;52.532;6.426;2022-11-20T01:22:09;20.53;;;13.27;;
63005;SDS011;53704;52.532;6.426;2022-11-20T01:24:34;19.23;;;13.23;;
63005;SDS011;53704;52.532;6.426;2022-11-20T01:26:59;27.37;;;13.57;;
63005;SDS011;53704;52.532;6.426;2022-11-20T01:29:25;18.80;;;12.20;;
63005;SDS011;53704;52.532;6.426;2022-11-20T01:31:50;19.20;;;12.93;;
63005;SDS011;53704;52.532;6.426;2022-11-20T01:34:18;24.93;;;13.87;;
63005;SDS011;53704;52.532;6.426;2022-11-20T01:36:45;27.47;;;14.83;;
63005;SDS011;53704;52.532;6.426;2022-11-20T01:39:13;31.50;;;14.87;;
63005;SDS011;53704;52.532;6.426;2022-11-20T01:41:40;30.50;;;14.97;;
63005;SDS011;53704;52.532;6.426;2022-11-20T01:44:43;20.48;;;13.45;;
63005;SDS011;53704;52.532;6.426;2022-11-20T01:47:17;19.57;;;13.20;;
63005;SDS011;53704;52.532;6.426;2022-11-20T01:52:37;22.87;;;14.10;;
63005;SDS011;53704;52.532;6.426;2022-11-20T01:55:12;21.87;;;14.17;;
63005;SDS011;53704;52.532;6.426;2022-11-20T01:57:42;25.25;;;14.50;;
63005;SDS011;53704;52.532;6.426;2022-11-20T02:00:11;25.43;;;14.57;;
63005;SDS011;53704;52.532;6.426;2022-11-20T02:02:38;23.83;;;13.60;;
63005;SDS011;53704;52.532;6.426;2022-11-20T02:05:14;17.30;;;12.20;;
63005;SDS011;53704;52.532;6.426;2022-11-20T02:07:49;26.63;;;13.23;;
63005;SDS011;53704;52.532;6.426;2022-11-20T02:10:16;23.60;;;13.57;;
63005;SDS011;53704;52.532;6.426;2022-11-20T02:12:41;16.10;;;12.40;;
63005;SDS011;53704;52.532;6.426;2022-11-20T02:15:26;19.08;;;12.90;;
63005;SDS011;53704;52.532;6.426;2022-11-20T02:17:51;22.90;;;13.13;;
63005;SDS011;53704;52.532;6.426;2022-11-20T02:20:17;22.10;;;13.10;;
63005;SDS011;53704;52.532;6.426;2022-11-20T02:22:50;18.40;;;13.63;;
63005;SDS011;53704;52.532;6.426;2022-11-20T02:25:22;22.57;;;12.37;;
63005;SDS011;53704;52.532;6.426;2022-11-20T02:27:51;23.37;;;13.03;;
63005;SDS011;53704;52.532;6.426;2022-11-20T02:30:17;23.87;;;12.57;;
63005;SDS011;53704;52.532;6.426;2022-11-20T02:32:42;20.97;;;13.60;;
63005;SDS011;53704;52.532;6.426;2022-11-20T02:37:42;19.00;;;12.43;;
63005;SDS011;53704;52.532;6.426;2022-11-20T02:40:09;19.60;;;13.07;;
63005;SDS011;53704;52.532;6.426;2022-11-20T02:42:35;21.70;;;12.70;;
63005;SDS011;53704;52.532;6.426;2022-11-20T02:45:02;19.97;;;12.40;;
63005;SDS011;53704;52.532;6.426;2022-11-20T02:47:28;22.77;;;13.50;;
63005;SDS011;53704;52.532;6.426;2022-11-20T02:49:53;20.80;;;13.07;;
63005;SDS011;53704;52.532;6.426;2022-11-20T02:52:18;16.10;;;12.33;;
63005;SDS011;53704;52.532;6.426;2022-11-20T02:54:44;18.57;;;12.83;;
63005;SDS011;53704;52.532;6.426;2022-11-20T02:57:09;18.67;;;12.73;;
63005;SDS011;53704;52.532;6.426;2022-11-20T02:59:34;21.27;;;13.57;;
63005;SDS011;53704;52.532;6.426;2022-11-20T03:02:00;22.60;;;13.70;;
63005;SDS011;53704;52.532;6.426;2022-11-20T03:04:25;18.93;;;12.90;;
63005;SDS011;53704;52.532;6.426;2022-11-20T03:06:50;17.27;;;11.27;;
63005;SDS011;53704;52.532;6.426;2022-11-20T03:09:16;20.50;;;13.43;;
63005;SDS011;53704;52.532;6.426;2022-11-20T03:11:41;19.43;;;13.23;;
63005;SDS011;53704;52.532;6.426;2022-11-20T03:14:07;22.27;;;11.90;;
63005;SDS011;53704;52.532;6.426;2022-11-20T03:16:32;19.30;;;12.50;;
63005;SDS011;53704;52.532;6.426;2022-11-20T03:18:58;17.33;;;12.60;;
63005;SDS011;53704;52.532;6.426;2022-11-20T03:21:23;17.77;;;12.53;;
63005;SDS011;53704;52.532;6.426;2022-11-20T03:23:49;18.47;;;12.00;;
63005;SDS011;53704;52.532;6.426;2022-11-20T03:26:18;20.37;;;12.57;;
63005;SDS011;53704;52.532;6.426;2022-11-20T03:28:47;19.93;;;12.17;;
63005;SDS011;53704;52.532;6.426;2022-11-20T03:31:17;17.43;;;12.00;;
63005;SDS011;53704;52.532;6.426;2022-11-20T03:33:45;22.40;;;13.17;;
63005;SDS011;53704;52.532;6.426;2022-11-20T03:36:11;19.17;;;12.20;;
63005;SDS011;53704;52.532;6.426;2022-11-20T03:38:38;19.73;;;12.43;;
63005;SDS011;53704;52.532;6.426;2022-11-20T03:41:05;19.23;;;12.40;;
63005;SDS011;53704;52.532;6.426;2022-11-20T03:43:32;17.90;;;12.30;;
63005;SDS011;53704;52.532;6.426;2022-11-20T03:45:58;20.10;;;12.13;;
63005;SDS011;53704;52.532;6.426;2022-11-20T03:48:24;18.50;;;10.93;;
63005;SDS011;53704;52.532;6.426;2022-11-20T03:50:50;22.83;;;12.53;;
63005;SDS011;53704;52.532;6.426;2022-11-20T03:53:15;22.10;;;12.93;;
63005;SDS011;53704;52.532;6.426;2022-11-20T03:55:41;27.27;;;12.60;;
63005;SDS011;53704;52.532;6.426;2022-11-20T03:58:07;20.00;;;11.17;;
63005;SDS011;53704;52.532;6.426;2022-11-20T04:00:33;13.93;;;10.67;;
63005;SDS011;53704;52.532;6.426;2022-11-20T04:03:00;18.33;;;11.90;;
63005;SDS011;53704;52.532;6.426;2022-11-20T04:05:26;21.00;;;10.60;;
63005;SDS011;53704;52.532;6.426;2022-11-20T04:07:52;16.43;;;11.47;;
63005;SDS011;53704;52.532;6.426;2022-11-20T04:10:17;15.60;;;10.73;;
63005;SDS011;53704;52.532;6.426;2022-11-20T04:12:43;24.20;;;12.50;;
63005;SDS011;53704;52.532;6.426;2022-11-20T04:15:08;14.53;;;10.87;;
63005;SDS011;53704;52.532;6.426;2022-11-20T04:17:34;16.53;;;11.40;;
63005;SDS011;53704;52.532;6.426;2022-11-20T04:20:00;17.63;;;11.53;;
63005;SDS011;53704;52.532;6.426;2022-11-20T04:22:26;16.77;;;11.17;;
63005;SDS011;53704;52.532;6.426;2022-11-20T04:24:51;25.23;;;12.40;;
63005;SDS011;53704;52.532;6.426;2022-11-20T04:27:17;16.73;;;11.03;;
63005;SDS011;53704;52.532;6.426;2022-11-20T04:29:42;18.37;;;11.23;;
63005;SDS011;53704;52.532;6.426;2022-11-20T04:32:07;16.23;;;10.43;;
63005;SDS011;53704;52.532;6.426;2022-11-20T04:34:33;19.73;;;10.90;;
63005;SDS011;53704;52.532;6.426;2022-11-20T04:36:58;16.40;;;10.97;;
63005;SDS011;53704;52.532;6.426;2022-11-20T04:39:23;16.60;;;10.87;;
63005;SDS011;53704;52.532;6.426;2022-11-20T04:41:49;15.13;;;11.07;;
63005;SDS011;53704;52.532;6.426;2022-11-20T04:44:34;17.10;;;11.23;;
63005;SDS011;53704;52.532;6.426;2022-11-20T04:46:59;16.60;;;10.77;;
63005;SDS011;53704;52.532;6.426;2022-11-20T04:49:25;21.73;;;11.73;;
63005;SDS011;53704;52.532;6.426;2022-11-20T04:51:52;16.70;;;11.07;;
63005;SDS011;53704;52.532;6.426;2022-11-20T04:54:18;17.30;;;11.27;;
63005;SDS011;53704;52.532;6.426;2022-11-20T04:56:47;14.70;;;10.73;;
63005;SDS011;53704;52.532;6.426;2022-11-20T04:59:12;15.53;;;10.93;;
63005;SDS011;53704;52.532;6.426;2022-11-20T05:01:38;15.57;;;11.30;;
63005;SDS011;53704;52.532;6.426;2022-11-20T05:04:04;18.20;;;11.33;;
63005;SDS011;53704;52.532;6.426;2022-11-20T05:06:30;12.87;;;10.17;;
63005;SDS011;53704;52.532;6.426;2022-11-20T05:08:56;19.47;;;11.53;;
63005;SDS011;53704;52.532;6.426;2022-11-20T05:11:21;14.50;;;10.47;;
63005;SDS011;53704;52.532;6.426;2022-11-20T05:13:47;16.13;;;10.97;;
63005;SDS011;53704;52.532;6.426;2022-11-20T05:16:17;16.60;;;10.80;;
63005;SDS011;53704;52.532;6.426;2022-11-20T05:18:44;14.10;;;11.03;;
63005;SDS011;53704;52.532;6.426;2022-11-20T05:21:10;16.20;;;11.00;;
63005;SDS011;53704;52.532;6.426;2022-11-20T05:23:37;17.00;;;10.40;;
63005;SDS011;53704;52.532;6.426;2022-11-20T05:26:03;15.27;;;10.00;;
63005;SDS011;53704;52.532;6.426;2022-11-20T05:28:29;17.50;;;10.50;;
63005;SDS011;53704;52.532;6.426;2022-11-20T05:30:56;15.93;;;10.70;;
63005;SDS011;53704;52.532;6.426;2022-11-20T05:33:28;16.13;;;10.37;;
63005;SDS011;53704;52.532;6.426;2022-11-20T05:35:57;14.60;;;10.33;;
63005;SDS011;53704;52.532;6.426;2022-11-20T05:38:23;13.17;;;10.37;;
63005;SDS011;53704;52.532;6.426;2022-11-20T05:40:48;14.97;;;10.83;;
63005;SDS011;53704;52.532;6.426;2022-11-20T05:43:13;15.57;;;10.57;;
63005;SDS011;53704;52.532;6.426;2022-11-20T05:45:39;16.60;;;10.17;;
63005;SDS011;53704;52.532;6.426;2022-11-20T05:48:04;11.90;;;9.23;;
63005;SDS011;53704;52.532;6.426;2022-11-20T05:50:30;15.57;;;10.07;;
63005;SDS011;53704;52.532;6.426;2022-11-20T05:52:57;16.60;;;10.63;;
63005;SDS011;53704;52.532;6.426;2022-11-20T05:55:23;19.03;;;11.87;;
63005;SDS011;53704;52.532;6.426;2022-11-20T05:57:48;17.77;;;11.27;;
63005;SDS011;53704;52.532;6.426;2022-11-20T06:00:14;19.90;;;12.93;;
63005;SDS011;53704;52.532;6.426;2022-11-20T06:02:40;15.57;;;11.80;;
63005;SDS011;53704;52.532;6.426;2022-11-20T06:05:05;14.90;;;11.20;;
63005;SDS011;53704;52.532;6.426;2022-11-20T06:07:31;20.67;;;12.27;;
63005;SDS011;53704;52.532;6.426;2022-11-20T06:09:56;15.43;;;11.90;;
63005;SDS011;53704;52.532;6.426;2022-11-20T06:12:22;17.10;;;12.97;;
63005;SDS011;53704;52.532;6.426;2022-11-20T06:14:47;18.53;;;12.33;;
63005;SDS011;53704;52.532;6.426;2022-11-20T06:17:13;20.77;;;12.53;;
63005;SDS011;53704;52.532;6.426;2022-11-20T06:19:38;25.30;;;12.20;;
63005;SDS011;53704;52.532;6.426;2022-11-20T06:22:03;15.83;;;11.00;;
63005;SDS011;53704;52.532;6.426;2022-11-20T06:24:29;17.50;;;12.07;;
63005;SDS011;53704;52.532;6.426;2022-11-20T06:26:54;17.33;;;12.30;;
63005;SDS011;53704;52.532;6.426;2022-11-20T06:29:19;21.13;;;12.13;;
63005;SDS011;53704;52.532;6.426;2022-11-20T06:31:45;19.50;;;12.23;;
63005;SDS011;53704;52.532;6.426;2022-11-20T06:34:10;18.83;;;11.83;;
63005;SDS011;53704;52.532;6.426;2022-11-20T06:36:35;15.80;;;11.57;;
63005;SDS011;53704;52.532;6.426;2022-11-20T06:39:01;19.13;;;12.00;;
63005;SDS011;53704;52.532;6.426;2022-11-20T06:41:26;19.27;;;12.87;;
63005;SDS011;53704;52.532;6.426;2022-11-20T06:43:53;19.37;;;12.30;;
63005;SDS011;53704;52.532;6.426;2022-11-20T06:46:18;19.63;;;12.40;;
63005;SDS011;53704;52.532;6.426;2022-11-20T06:48:44;23.67;;;13.43;;
63005;SDS011;53704;52.532;6.426;2022-11-20T06:51:11;19.33;;;12.30;;
63005;SDS011;53704;52.532;6.426;2022-11-20T06:53:36;22.87;;;12.50;;
63005;SDS011;53704;52.532;6.426;2022-11-20T06:56:02;17.80;;;11.87;;
63005;SDS011;53704;52.532;6.426;2022-11-20T06:58:29;25.70;;;14.60;;
63005;SDS011;53704;52.532;6.426;2022-11-20T07:00:59;17.53;;;12.77;;
63005;SDS011;53704;52.532;6.426;2022-11-20T07:03:26;23.03;;;13.30;;
63005;SDS011;53704;52.532;6.426;2022-11-20T07:05:53;20.87;;;12.47;;
63005;SDS011;53704;52.532;6.426;2022-11-20T07:08:19;24.43;;;12.37;;
63005;SDS011;53704;52.532;6.426;2022-11-20T07:10:45;19.47;;;12.53;;
63005;SDS011;53704;52.532;6.426;2022-11-20T07:13:10;21.07;;;12.60;;
63005;SDS011;53704;52.532;6.426;2022-11-20T07:15:35;19.57;;;12.63;;
63005;SDS011;53704;52.532;6.426;2022-11-20T07:18:01;19.87;;;12.43;;
63005;SDS011;53704;52.532;6.426;2022-11-20T07:20:27;20.20;;;13.23;;
63005;SDS011;53704;52.532;6.426;2022-11-20T07:22:53;19.03;;;11.13;;
63005;SDS011;53704;52.532;6.426;2022-11-20T07:25:20;22.07;;;13.67;;
63005;SDS011;53704;52.532;6.426;2022-11-20T07:27:45;16.10;;;11.63;;
63005;SDS011;53704;52.532;6.426;2022-11-20T07:30:11;24.70;;;13.10;;
63005;SDS011;53704;52.532;6.426;2022-11-20T07:32:37;21.07;;;13.47;;
63005;SDS011;53704;52.532;6.426;2022-11-20T07:35:02;21.10;;;13.63;;
63005;SDS011;53704;52.532;6.426;2022-11-20T07:37:27;20.53;;;12.83;;
63005;SDS011;53704;52.532;6.426;2022-11-20T07:39:53;17.70;;;12.10;;
63005;SDS011;53704;52.532;6.426;2022-11-20T07:42:18;19.70;;;12.57;;
63005;SDS011;53704;52.532;6.426;2022-11-20T07:44:44;20.97;;;13.03;;
63005;SDS011;53704;52.532;6.426;2022-11-20T07:47:09;20.67;;;13.37;;
63005;SDS011;53704;52.532;6.426;2022-11-20T07:49:34;19.53;;;12.83;;
63005;SDS011;53704;52.532;6.426;2022-11-20T07:52:00;22.40;;;14.50;;
63005;SDS011;53704;52.532;6.426;2022-11-20T07:54:25;23.57;;;14.33;;
63005;SDS011;53704;52.532;6.426;2022-11-20T07:56:50;23.70;;;15.83;;
63005;SDS011;53704;52.532;6.426;2022-11-20T07:59:16;23.80;;;14.30;;
63005;SDS011;53704;52.532;6.426;2022-11-20T08:01:41;24.93;;;15.93;;
63005;SDS011;53704;52.532;6.426;2022-11-20T08:04:08;21.60;;;15.23;;
63005;SDS011;53704;52.532;6.426;2022-11-20T08:06:34;25.50;;;15.70;;
63005;SDS011;53704;52.532;6.426;2022-11-20T08:09:00;25.93;;;15.63;;
63005;SDS011;53704;52.532;6.426;2022-11-20T08:11:25;26.83;;;15.90;;
63005;SDS011;53704;52.532;6.426;2022-11-20T08:14:09;26.03;;;15.33;;
63005;SDS011;53704;52.532;6.426;2022-11-20T08:16:44;23.93;;;15.83;;
63005;SDS011;53704;52.532;6.426;2022-11-20T08:19:12;26.33;;;16.33;;
63005;SDS011;53704;52.532;6.426;2022-11-20T08:21:39;35.20;;;16.27;;
63005;SDS011;53704;52.532;6.426;2022-11-20T08:24:05;30.47;;;17.20;;
63005;SDS011;53704;52.532;6.426;2022-11-20T08:26:31;27.83;;;16.40;;
63005;SDS011;53704;52.532;6.426;2022-11-20T08:28:56;28.43;;;18.17;;
63005;SDS011;53704;52.532;6.426;2022-11-20T08:31:26;29.33;;;17.03;;
63005;SDS011;53704;52.532;6.426;2022-11-20T08:33:52;29.93;;;19.37;;
63005;SDS011;53704;52.532;6.426;2022-11-20T08:36:18;34.33;;;19.60;;
63005;SDS011;53704;52.532;6.426;2022-11-20T08:38:49;46.47;;;26.93;;
63005;SDS011;53704;52.532;6.426;2022-11-20T08:41:16;28.03;;;18.90;;
63005;SDS011;53704;52.532;6.426;2022-11-20T08:43:55;28.00;;;19.73;;
63005;SDS011;53704;52.532;6.426;2022-11-20T08:46:26;26.48;;;17.92;;
63005;SDS011;53704;52.532;6.426;2022-11-20T08:48:52;26.90;;;17.23;;
63005;SDS011;53704;52.532;6.426;2022-11-20T08:51:19;27.60;;;18.33;;
63005;SDS011;53704;52.532;6.426;2022-11-20T08:53:45;30.70;;;16.77;;
63005;SDS011;53704;52.532;6.426;2022-11-20T08:56:13;21.90;;;15.87;;
63005;SDS011;53704;52.532;6.426;2022-11-20T08:58:38;25.87;;;16.83;;
63005;SDS011;53704;52.532;6.426;2022-11-20T09:01:04;26.60;;;16.93;;
63005;SDS011;53704;52.532;6.426;2022-11-20T09:03:30;26.80;;;16.70;;
63005;SDS011;53704;52.532;6.426;2022-11-20T09:05:59;24.53;;;16.63;;
63005;SDS011;53704;52.532;6.426;2022-11-20T09:08:27;27.60;;;17.57;;
63005;SDS011;53704;52.532;6.426;2022-11-20T09:10:53;27.27;;;18.63;;
63005;SDS011;53704;52.532;6.426;2022-11-20T09:13:20;28.57;;;17.70;;
63005;SDS011;53704;52.532;6.426;2022-11-20T09:15:46;31.17;;;19.47;;
63005;SDS011;53704;52.532;6.426;2022-11-20T09:18:12;30.50;;;18.47;;
63005;SDS011;53704;52.532;6.426;2022-11-20T09:20:37;33.07;;;19.50;;
63005;SDS011;53704;52.532;6.426;2022-11-20T09:23:03;24.50;;;17.60;;
63005;SDS011;53704;52.532;6.426;2022-11-20T09:25:28;25.30;;;16.97;;
63005;SDS011;53704;52.532;6.426;2022-11-20T09:27:54;26.27;;;17.73;;
63005;SDS011;53704;52.532;6.426;2022-11-20T09:30:23;31.07;;;17.70;;
63005;SDS011;53704;52.532;6.426;2022-11-20T09:32:49;30.80;;;17.53;;
63005;SDS011;53704;52.532;6.426;2022-11-20T09:35:15;31.03;;;17.93;;
63005;SDS011;53704;52.532;6.426;2022-11-20T09:37:40;26.90;;;17.73;;
63005;SDS011;53704;52.532;6.426;2022-11-20T09:40:06;25.70;;;18.00;;
63005;SDS011;53704;52.532;6.426;2022-11-20T09:42:45;24.03;;;15.37;;
63005;SDS011;53704;52.532;6.426;2022-11-20T09:47:47;25.20;;;16.70;;
63005;SDS011;53704;52.532;6.426;2022-11-20T09:55:54;20.17;;;15.17;;
63005;SDS011;53704;52.532;6.426;2022-11-20T10:01:19;25.13;;;16.10;;
63005;SDS011;53704;52.532;6.426;2022-11-20T10:04:04;25.23;;;16.67;;
63005;SDS011;53704;52.532;6.426;2022-11-20T10:06:44;23.05;;;16.17;;
63005;SDS011;53704;52.532;6.426;2022-11-20T10:09:29;22.60;;;15.83;;
63005;SDS011;53704;52.532;6.426;2022-11-20T10:25:19;18.50;;;13.53;;
63005;SDS011;53704;52.532;6.426;2022-11-20T10:27:59;20.27;;;13.23;;
63005;SDS011;53704;52.532;6.426;2022-11-20T10:30:41;21.63;;;14.03;;
63005;SDS011;53704;52.532;6.426;2022-11-20T10:33:19;17.30;;;11.83;;
63005;SDS011;53704;52.532;6.426;2022-11-20T10:41:26;25.43;;;13.33;;
63005;SDS011;53704;52.532;6.426;2022-11-20T10:47:04;14.83;;;12.00;;
63005;SDS011;53704;52.532;6.426;2022-11-20T10:49:35;12.27;;;9.97;;
63005;SDS011;53704;52.532;6.426;2022-11-20T10:57:29;16.77;;;11.10;;
63005;SDS011;53704;52.532;6.426;2022-11-20T11:00:05;14.63;;;11.18;;
63005;SDS011;53704;52.532;6.426;2022-11-20T11:02:32;13.40;;;10.93;;
63005;SDS011;53704;52.532;6.426;2022-11-20T11:05:11;14.97;;;11.60;;
63005;SDS011;53704;52.532;6.426;2022-11-20T11:07:46;16.87;;;12.07;;
63005;SDS011;53704;52.532;6.426;2022-11-20T11:10:17;13.13;;;11.80;;
63005;SDS011;53704;52.532;6.426;2022-11-20T11:12:46;16.77;;;13.57;;
63005;SDS011;53704;52.532;6.426;2022-11-20T11:15:58;18.60;;;14.33;;
63005;SDS011;53704;52.532;6.426;2022-11-20T11:18:01;16.43;;;12.33;;
63005;SDS011;53704;52.532;6.426;2022-11-20T11:20:27;16.67;;;12.27;;
63005;SDS011;53704;52.532;6.426;2022-11-20T11:22:53;16.77;;;12.43;;
63005;SDS011;53704;52.532;6.426;2022-11-20T11:25:22;17.07;;;14.10;;
63005;SDS011;53704;52.532;6.426;2022-11-20T11:28:03;18.57;;;13.63;;
63005;SDS011;53704;52.532;6.426;2022-11-20T11:30:40;18.83;;;15.95;;
63005;SDS011;53704;52.532;6.426;2022-11-20T11:33:09;19.27;;;15.13;;
63005;SDS011;53704;52.532;6.426;2022-11-20T11:35:50;21.23;;;14.40;;
63005;SDS011;53704;52.532;6.426;2022-11-20T11:40:54;20.33;;;14.23;;
63005;SDS011;53704;52.532;6.426;2022-11-20T11:43:25;18.17;;;14.13;;
63005;SDS011;53704;52.532;6.426;2022-11-20T11:46:22;20.53;;;14.03;;
63005;SDS011;53704;52.532;6.426;2022-11-20T11:48:57;20.80;;;14.87;;
63005;SDS011;53704;52.532;6.426;2022-11-20T11:54:21;17.07;;;13.90;;
63005;SDS011;53704;52.532;6.426;2022-11-20T11:56:52;19.50;;;14.77;;
63005;SDS011;53704;52.532;6.426;2022-11-20T11:59:23;18.77;;;12.00;;
63005;SDS011;53704;52.532;6.426;2022-11-20T12:02:01;17.13;;;13.57;;
63005;SDS011;53704;52.532;6.426;2022-11-20T12:10:22;17.67;;;13.77;;
63005;SDS011;53704;52.532;6.426;2022-11-20T12:13:00;18.08;;;11.52;;
63005;SDS011;53704;52.532;6.426;2022-11-20T12:15:30;21.70;;;13.20;;
63005;SDS011;53704;52.532;6.426;2022-11-20T12:17:58;15.98;;;12.48;;
63005;SDS011;53704;52.532;6.426;2022-11-20T12:20:25;16.10;;;12.18;;
63005;SDS011;53704;52.532;6.426;2022-11-20T12:22:56;16.97;;;12.40;;
63005;SDS011;53704;52.532;6.426;2022-11-20T12:25:35;15.07;;;12.18;;
63005;SDS011;53704;52.532;6.426;2022-11-20T12:33:50;14.27;;;11.38;;
63005;SDS011;53704;52.532;6.426;2022-11-20T12:39:16;12.23;;;11.10;;
63005;SDS011;53704;52.532;6.426;2022-11-20T12:41:58;13.87;;;11.23;;
63005;SDS011;53704;52.532;6.426;2022-11-20T12:48:14;14.93;;;11.95;;
63005;SDS011;53704;52.532;6.426;2022-11-20T12:56:20;14.60;;;11.20;;
63005;SDS011;53704;52.532;6.426;2022-11-20T13:07:10;18.25;;;12.70;;
63005;SDS011;53704;52.532;6.426;2022-11-20T13:09:40;19.63;;;13.65;;
63005;SDS011;53704;52.532;6.426;2022-11-20T13:12:30;19.63;;;13.05;;
63005;SDS011;53704;52.532;6.426;2022-11-20T13:15:07;18.50;;;13.15;;
63005;SDS011;53704;52.532;6.426;2022-11-20T13:20:26;18.67;;;13.88;;
63005;SDS011;53704;52.532;6.426;2022-11-20T13:22:52;13.70;;;12.23;;
63005;SDS011;53704;52.532;6.426;2022-11-20T13:27:48;22.50;;;13.30;;
63005;SDS011;53704;52.532;6.426;2022-11-20T13:30:18;18.45;;;12.75;;
63005;SDS011;53704;52.532;6.426;2022-11-20T13:32:51;13.75;;;12.35;;
63005;SDS011;53704;52.532;6.426;2022-11-20T13:35:26;15.63;;;12.52;;
63005;SDS011;53704;52.532;6.426;2022-11-20T13:40:39;14.95;;;11.95;;
63005;SDS011;53704;52.532;6.426;2022-11-20T13:43:46;17.17;;;11.40;;
63005;SDS011;53704;52.532;6.426;2022-11-20T13:46:13;13.38;;;11.68;;
63005;SDS011;53704;52.532;6.426;2022-11-20T13:48:41;13.32;;;11.38;;
63005;SDS011;53704;52.532;6.426;2022-11-20T13:51:14;15.45;;;12.77;;
63005;SDS011;53704;52.532;6.426;2022-11-20T13:57:21;16.63;;;12.57;;
63005;SDS011;53704;52.532;6.426;2022-11-20T14:00:09;16.45;;;12.82;;
63005;SDS011;53704;52.532;6.426;2022-11-20T14:02:57;17.90;;;12.55;;
63005;SDS011;53704;52.532;6.426;2022-11-20T14:05:45;13.93;;;11.73;;
63005;SDS011;53704;52.532;6.426;2022-11-20T14:08:26;16.33;;;11.33;;
63005;SDS011;53704;52.532;6.426;2022-11-20T14:16:30;15.60;;;12.75;;
63005;SDS011;53704;52.532;6.426;2022-11-20T14:22:35;15.83;;;12.43;;
63005;SDS011;53704;52.532;6.426;2022-11-20T14:27:56;13.90;;;12.48;;
63005;SDS011;53704;52.532;6.426;2022-11-20T14:30:24;13.27;;;11.90;;
63005;SDS011;53704;52.532;6.426;2022-11-20T14:32:53;13.90;;;12.43;;
63005;SDS011;53704;52.532;6.426;2022-11-20T14:35:28;15.80;;;12.20;;
63005;SDS011;53704;52.532;6.426;2022-11-20T14:37:55;17.02;;;12.68;;
63005;SDS011;53704;52.532;6.426;2022-11-20T14:40:29;17.40;;;12.73;;
63005;SDS011;53704;52.532;6.426;2022-11-20T14:43:02;18.13;;;13.50;;
63005;SDS011;53704;52.532;6.426;2022-11-20T14:48:50;16.05;;;12.38;;
63005;SDS011;53704;52.532;6.426;2022-11-20T14:51:57;17.05;;;13.00;;
63005;SDS011;53704;52.532;6.426;2022-11-20T14:56:39;15.00;;;12.00;;
63005;SDS011;53704;52.532;6.426;2022-11-20T14:59:04;15.52;;;12.40;;
63005;SDS011;53704;52.532;6.426;2022-11-20T15:01:31;13.65;;;11.70;;
63005;SDS011;53704;52.532;6.426;2022-11-20T15:04:01;17.40;;;13.57;;
63005;SDS011;53704;52.532;6.426;2022-11-20T15:06:31;14.93;;;12.82;;
63005;SDS011;53704;52.532;6.426;2022-11-20T15:08:57;21.13;;;12.57;;
63005;SDS011;53704;52.532;6.426;2022-11-20T15:11:27;11.38;;;10.27;;
63005;SDS011;53704;52.532;6.426;2022-11-20T15:13:55;15.80;;;11.80;;
63005;SDS011;53704;52.532;6.426;2022-11-20T15:16:21;18.65;;;12.23;;
63005;SDS011;53704;52.532;6.426;2022-11-20T15:18:48;15.38;;;12.80;;
63005;SDS011;53704;52.532;6.426;2022-11-20T15:21:15;20.05;;;13.40;;
63005;SDS011;53704;52.532;6.426;2022-11-20T15:23:42;17.70;;;13.43;;
63005;SDS011;53704;52.532;6.426;2022-11-20T15:26:08;15.68;;;12.73;;
63005;SDS011;53704;52.532;6.426;2022-11-20T15:28:36;18.85;;;13.23;;
63005;SDS011;53704;52.532;6.426;2022-11-20T15:31:06;19.13;;;14.27;;
63005;SDS011;53704;52.532;6.426;2022-11-20T15:33:32;19.30;;;13.50;;
63005;SDS011;53704;52.532;6.426;2022-11-20T15:35:58;20.60;;;13.55;;
63005;SDS011;53704;52.532;6.426;2022-11-20T15:38:24;19.70;;;14.00;;
63005;SDS011;53704;52.532;6.426;2022-11-20T15:40:50;17.20;;;12.57;;
63005;SDS011;53704;52.532;6.426;2022-11-20T15:43:16;23.42;;;13.65;;
63005;SDS011;53704;52.532;6.426;2022-11-20T15:45:49;23.73;;;13.85;;
63005;SDS011;53704;52.532;6.426;2022-11-20T15:48:21;17.70;;;12.75;;
63005;SDS011;53704;52.532;6.426;2022-11-20T15:53:15;18.55;;;13.23;;
63005;SDS011;53704;52.532;6.426;2022-11-20T15:55:40;21.23;;;15.02;;
63005;SDS011;53704;52.532;6.426;2022-11-20T15:58:06;19.60;;;13.35;;
63005;SDS011;53704;52.532;6.426;2022-11-20T16:00:31;16.15;;;13.90;;
63005;SDS011;53704;52.532;6.426;2022-11-20T16:02:56;19.98;;;13.95;;
63005;SDS011;53704;52.532;6.426;2022-11-20T16:05:22;21.17;;;15.30;;
63005;SDS011;53704;52.532;6.426;2022-11-20T16:07:48;21.95;;;14.68;;
63005;SDS011;53704;52.532;6.426;2022-11-20T16:10:15;21.95;;;14.40;;
63005;SDS011;53704;52.532;6.426;2022-11-20T16:12:40;21.05;;;13.75;;
63005;SDS011;53704;52.532;6.426;2022-11-20T16:15:24;18.30;;;14.43;;
63005;SDS011;53704;52.532;6.426;2022-11-20T16:18:09;21.80;;;15.50;;
63005;SDS011;53704;52.532;6.426;2022-11-20T16:20:35;20.33;;;14.50;;
63005;SDS011;53704;52.532;6.426;2022-11-20T16:23:01;23.40;;;16.65;;